sensor_id;sensor_type;location;lat;lon;timestamp;P1;durP1;ratioP1;P2;durP2;ratioP2
8550;SDS011;4313;42.000;21.380;2023-03-17T00:01:50;7.57;;;5.37;;
8550;SDS011;4313;42.000;21.380;2023-03-17T00:04:20;7.67;;;5.10;;
8550;SDS011;4313;42.000;21.380;2023-03-17T00:06:48;6.97;;;4.90;;
8550;SDS011;4313;42.000;21.380;2023-03-17T00:09:16;6.67;;;4.90;;
8550;SDS011;4313;42.000;21.380;2023-03-17T00:11:44;7.43;;;4.90;;
8550;SDS011;4313;42.000;21.380;2023-03-17T00:14:11;6.20;;;4.63;;
8550;SDS011;4313;42.000;21.380;2023-03-17T00:16:39;5.97;;;4.37;;
8550;SDS011;4313;42.000;21.380;2023-03-17T00:19:08;6.47;;;4.50;;
8550;SDS011;4313;42.000;21.380;2023-03-17T00:21:42;7.03;;;4.77;;
8550;SDS011;4313;42.000;21.380;2023-03-17T00:24:10;6.23;;;4.37;;
8550;SDS011;4313;42.000;21.380;2023-03-17T00:26:38;7.63;;;4.73;;
8550;SDS011;4313;42.000;21.380;2023-03-17T00:29:06;6.40;;;4.90;;
8550;SDS011;4313;42.000;21.380;2023-03-17T00:31:34;7.40;;;4.87;;
8550;SDS011;4313;42.000;21.380;2023-03-17T00:34:02;8.40;;;5.23;;
8550;SDS011;4313;42.000;21.380;2023-03-17T00:36:30;7.00;;;4.80;;
8550;SDS011;4313;42.000;21.380;2023-03-17T00:39:04;6.27;;;5.07;;
8550;SDS011;4313;42.000;21.380;2023-03-17T00:41:32;8.00;;;4.63;;
8550;SDS011;4313;42.000;21.380;2023-03-17T00:43:59;6.37;;;4.83;;
8550;SDS011;4313;42.000;21.380;2023-03-17T00:46:27;6.70;;;4.70;;
8550;SDS011;4313;42.000;21.380;2023-03-17T00:48:59;7.73;;;5.17;;
8550;SDS011;4313;42.000;21.380;2023-03-17T00:51:27;7.23;;;5.30;;
8550;SDS011;4313;42.000;21.380;2023-03-17T00:53:54;9.17;;;5.10;;
8550;SDS011;4313;42.000;21.380;2023-03-17T00:56:23;8.30;;;4.93;;
8550;SDS011;4313;42.000;21.380;2023-03-17T00:58:50;8.17;;;5.13;;
8550;SDS011;4313;42.000;21.380;2023-03-17T01:01:35;6.90;;;5.00;;
8550;SDS011;4313;42.000;21.380;2023-03-17T01:04:23;7.17;;;5.20;;
8550;SDS011;4313;42.000;21.380;2023-03-17T01:06:51;7.50;;;5.27;;
8550;SDS011;4313;42.000;21.380;2023-03-17T01:09:18;7.57;;;5.00;;
8550;SDS011;4313;42.000;21.380;2023-03-17T01:11:48;7.13;;;4.97;;
8550;SDS011;4313;42.000;21.380;2023-03-17T01:14:15;9.70;;;5.27;;
8550;SDS011;4313;42.000;21.380;2023-03-17T01:16:43;7.90;;;5.20;;
8550;SDS011;4313;42.000;21.380;2023-03-17T01:19:12;7.87;;;5.30;;
8550;SDS011;4313;42.000;21.380;2023-03-17T01:21:39;7.53;;;5.53;;
8550;SDS011;4313;42.000;21.380;2023-03-17T01:24:07;6.17;;;4.67;;
8550;SDS011;4313;42.000;21.380;2023-03-17T01:26:34;8.63;;;5.40;;
8550;SDS011;4313;42.000;21.380;2023-03-17T01:29:22;8.30;;;5.40;;
8550;SDS011;4313;42.000;21.380;2023-03-17T01:31:49;7.97;;;5.60;;
8550;SDS011;4313;42.000;21.380;2023-03-17T01:34:17;7.53;;;5.20;;
8550;SDS011;4313;42.000;21.380;2023-03-17T01:36:44;7.10;;;5.50;;
8550;SDS011;4313;42.000;21.380;2023-03-17T01:39:13;8.40;;;5.47;;
8550;SDS011;4313;42.000;21.380;2023-03-17T01:41:40;7.73;;;5.43;;
8550;SDS011;4313;42.000;21.380;2023-03-17T01:44:11;10.90;;;5.50;;
8550;SDS011;4313;42.000;21.380;2023-03-17T01:46:42;7.13;;;5.30;;
8550;SDS011;4313;42.000;21.380;2023-03-17T01:49:21;8.60;;;5.53;;
8550;SDS011;4313;42.000;21.380;2023-03-17T01:51:58;6.40;;;5.70;;
8550;SDS011;4313;42.000;21.380;2023-03-17T01:54:29;9.07;;;5.40;;
8550;SDS011;4313;42.000;21.380;2023-03-17T01:57:21;7.73;;;5.30;;
8550;SDS011;4313;42.000;21.380;2023-03-17T01:59:54;8.90;;;5.23;;
8550;SDS011;4313;42.000;21.380;2023-03-17T02:02:24;8.07;;;5.60;;
8550;SDS011;4313;42.000;21.380;2023-03-17T02:04:55;6.43;;;4.90;;
8550;SDS011;4313;42.000;21.380;2023-03-17T02:07:23;8.53;;;5.70;;
8550;SDS011;4313;42.000;21.380;2023-03-17T02:09:52;7.80;;;5.60;;
8550;SDS011;4313;42.000;21.380;2023-03-17T02:12:20;8.13;;;5.23;;
8550;SDS011;4313;42.000;21.380;2023-03-17T02:14:48;8.50;;;5.50;;
8550;SDS011;4313;42.000;21.380;2023-03-17T02:17:16;7.43;;;5.53;;
8550;SDS011;4313;42.000;21.380;2023-03-17T02:19:44;9.03;;;5.30;;
8550;SDS011;4313;42.000;21.380;2023-03-17T02:22:13;7.50;;;4.90;;
8550;SDS011;4313;42.000;21.380;2023-03-17T02:24:44;7.50;;;5.07;;
8550;SDS011;4313;42.000;21.380;2023-03-17T02:27:13;6.13;;;4.90;;
8550;SDS011;4313;42.000;21.380;2023-03-17T02:29:44;8.30;;;5.03;;
8550;SDS011;4313;42.000;21.380;2023-03-17T02:32:11;7.47;;;5.00;;
8550;SDS011;4313;42.000;21.380;2023-03-17T02:34:39;8.70;;;5.10;;
8550;SDS011;4313;42.000;21.380;2023-03-17T02:37:06;7.47;;;5.43;;
8550;SDS011;4313;42.000;21.380;2023-03-17T02:39:36;6.30;;;4.97;;
8550;SDS011;4313;42.000;21.380;2023-03-17T02:42:21;7.03;;;4.87;;
8550;SDS011;4313;42.000;21.380;2023-03-17T02:44:49;7.83;;;5.10;;
8550;SDS011;4313;42.000;21.380;2023-03-17T02:47:17;7.13;;;5.00;;
8550;SDS011;4313;42.000;21.380;2023-03-17T02:49:44;9.03;;;5.30;;
8550;SDS011;4313;42.000;21.380;2023-03-17T02:52:12;6.30;;;4.57;;
8550;SDS011;4313;42.000;21.380;2023-03-17T02:54:41;8.77;;;5.10;;
8550;SDS011;4313;42.000;21.380;2023-03-17T02:57:08;6.17;;;5.20;;
8550;SDS011;4313;42.000;21.380;2023-03-17T02:59:36;7.53;;;5.07;;
8550;SDS011;4313;42.000;21.380;2023-03-17T03:02:03;7.63;;;4.87;;
8550;SDS011;4313;42.000;21.380;2023-03-17T03:04:30;8.50;;;5.00;;
8550;SDS011;4313;42.000;21.380;2023-03-17T03:06:58;6.93;;;4.60;;
8550;SDS011;4313;42.000;21.380;2023-03-17T03:09:27;8.13;;;4.80;;
8550;SDS011;4313;42.000;21.380;2023-03-17T03:11:55;9.33;;;4.97;;
8550;SDS011;4313;42.000;21.380;2023-03-17T03:14:22;7.53;;;4.77;;
8550;SDS011;4313;42.000;21.380;2023-03-17T03:16:50;6.67;;;4.70;;
8550;SDS011;4313;42.000;21.380;2023-03-17T03:19:17;7.27;;;5.57;;
8550;SDS011;4313;42.000;21.380;2023-03-17T03:21:44;7.30;;;5.17;;
8550;SDS011;4313;42.000;21.380;2023-03-17T03:24:11;7.00;;;4.40;;
8550;SDS011;4313;42.000;21.380;2023-03-17T03:26:38;6.97;;;4.87;;
8550;SDS011;4313;42.000;21.380;2023-03-17T03:29:07;7.43;;;4.90;;
8550;SDS011;4313;42.000;21.380;2023-03-17T03:31:34;7.90;;;5.43;;
8550;SDS011;4313;42.000;21.380;2023-03-17T03:34:01;6.77;;;4.90;;
8550;SDS011;4313;42.000;21.380;2023-03-17T03:36:28;8.53;;;4.73;;
8550;SDS011;4313;42.000;21.380;2023-03-17T03:38:56;9.20;;;5.20;;
8550;SDS011;4313;42.000;21.380;2023-03-17T03:41:25;8.30;;;4.53;;
8550;SDS011;4313;42.000;21.380;2023-03-17T03:43:52;7.47;;;4.80;;
8550;SDS011;4313;42.000;21.380;2023-03-17T03:46:21;7.60;;;4.77;;
8550;SDS011;4313;42.000;21.380;2023-03-17T03:49:07;8.50;;;4.90;;
8550;SDS011;4313;42.000;21.380;2023-03-17T03:51:34;9.47;;;4.97;;
8550;SDS011;4313;42.000;21.380;2023-03-17T03:54:01;5.07;;;4.20;;
8550;SDS011;4313;42.000;21.380;2023-03-17T03:56:46;5.63;;;4.43;;
8550;SDS011;4313;42.000;21.380;2023-03-17T03:59:16;6.63;;;4.50;;
8550;SDS011;4313;42.000;21.380;2023-03-17T04:01:45;8.00;;;5.40;;
8550;SDS011;4313;42.000;21.380;2023-03-17T04:04:12;8.17;;;4.90;;
8550;SDS011;4313;42.000;21.380;2023-03-17T04:06:39;6.47;;;4.60;;
8550;SDS011;4313;42.000;21.380;2023-03-17T04:09:09;8.00;;;4.57;;
8550;SDS011;4313;42.000;21.380;2023-03-17T04:11:37;7.70;;;4.77;;
8550;SDS011;4313;42.000;21.380;2023-03-17T04:14:04;8.20;;;4.87;;
8550;SDS011;4313;42.000;21.380;2023-03-17T04:16:31;7.70;;;4.87;;
8550;SDS011;4313;42.000;21.380;2023-03-17T04:19:00;7.60;;;4.67;;
8550;SDS011;4313;42.000;21.380;2023-03-17T04:21:27;8.83;;;4.63;;
8550;SDS011;4313;42.000;21.380;2023-03-17T04:23:54;5.73;;;4.20;;
8550;SDS011;4313;42.000;21.380;2023-03-17T04:26:21;6.80;;;4.50;;
8550;SDS011;4313;42.000;21.380;2023-03-17T04:28:49;6.77;;;4.47;;
8550;SDS011;4313;42.000;21.380;2023-03-17T04:31:17;9.17;;;4.40;;
8550;SDS011;4313;42.000;21.380;2023-03-17T04:33:44;9.30;;;5.00;;
8550;SDS011;4313;42.000;21.380;2023-03-17T04:36:15;5.63;;;4.60;;
8550;SDS011;4313;42.000;21.380;2023-03-17T04:38:44;5.57;;;4.23;;
8550;SDS011;4313;42.000;21.380;2023-03-17T04:41:14;7.13;;;4.80;;
8550;SDS011;4313;42.000;21.380;2023-03-17T04:43:44;6.27;;;4.30;;
8550;SDS011;4313;42.000;21.380;2023-03-17T04:46:11;7.87;;;4.80;;
8550;SDS011;4313;42.000;21.380;2023-03-17T04:48:38;6.77;;;4.60;;
8550;SDS011;4313;42.000;21.380;2023-03-17T04:51:05;7.80;;;4.90;;
8550;SDS011;4313;42.000;21.380;2023-03-17T04:53:37;7.57;;;4.40;;
8550;SDS011;4313;42.000;21.380;2023-03-17T04:56:04;7.37;;;4.20;;
8550;SDS011;4313;42.000;21.380;2023-03-17T04:58:32;9.57;;;6.10;;
8550;SDS011;4313;42.000;21.380;2023-03-17T05:00:59;6.97;;;5.30;;
8550;SDS011;4313;42.000;21.380;2023-03-17T05:03:29;8.60;;;5.67;;
8550;SDS011;4313;42.000;21.380;2023-03-17T05:05:57;8.37;;;5.23;;
8550;SDS011;4313;42.000;21.380;2023-03-17T05:08:24;7.00;;;5.20;;
8550;SDS011;4313;42.000;21.380;2023-03-17T05:10:56;9.57;;;6.07;;
8550;SDS011;4313;42.000;21.380;2023-03-17T05:13:24;7.67;;;4.70;;
8550;SDS011;4313;42.000;21.380;2023-03-17T05:15:52;6.60;;;4.83;;
8550;SDS011;4313;42.000;21.380;2023-03-17T05:18:20;6.80;;;5.07;;
8550;SDS011;4313;42.000;21.380;2023-03-17T05:20:48;9.00;;;5.33;;
8550;SDS011;4313;42.000;21.380;2023-03-17T05:26:07;8.30;;;4.70;;
8550;SDS011;4313;42.000;21.380;2023-03-17T05:28:38;10.87;;;4.70;;
8550;SDS011;4313;42.000;21.380;2023-03-17T05:31:06;6.60;;;4.83;;
8550;SDS011;4313;42.000;21.380;2023-03-17T05:33:33;8.07;;;5.27;;
8550;SDS011;4313;42.000;21.380;2023-03-17T05:36:01;12.47;;;8.10;;
8550;SDS011;4313;42.000;21.380;2023-03-17T05:38:29;10.33;;;7.80;;
8550;SDS011;4313;42.000;21.380;2023-03-17T05:40:56;9.43;;;4.77;;
8550;SDS011;4313;42.000;21.380;2023-03-17T05:43:24;6.13;;;4.80;;
8550;SDS011;4313;42.000;21.380;2023-03-17T05:45:52;5.60;;;4.37;;
8550;SDS011;4313;42.000;21.380;2023-03-17T05:48:19;8.80;;;4.87;;
8550;SDS011;4313;42.000;21.380;2023-03-17T05:50:46;8.50;;;4.77;;
8550;SDS011;4313;42.000;21.380;2023-03-17T05:53:14;5.93;;;4.77;;
8550;SDS011;4313;42.000;21.380;2023-03-17T05:55:41;6.83;;;4.40;;
8550;SDS011;4313;42.000;21.380;2023-03-17T05:58:28;5.07;;;4.20;;
8550;SDS011;4313;42.000;21.380;2023-03-17T06:00:55;7.80;;;4.97;;
8550;SDS011;4313;42.000;21.380;2023-03-17T06:03:22;7.77;;;4.97;;
8550;SDS011;4313;42.000;21.380;2023-03-17T06:05:50;7.00;;;5.10;;
8550;SDS011;4313;42.000;21.380;2023-03-17T06:08:17;6.43;;;4.87;;
8550;SDS011;4313;42.000;21.380;2023-03-17T06:10:45;6.97;;;5.80;;
8550;SDS011;4313;42.000;21.380;2023-03-17T06:13:14;9.47;;;5.80;;
8550;SDS011;4313;42.000;21.380;2023-03-17T06:15:43;7.33;;;5.23;;
8550;SDS011;4313;42.000;21.380;2023-03-17T06:18:10;8.70;;;5.80;;
8550;SDS011;4313;42.000;21.380;2023-03-17T06:20:38;7.77;;;5.57;;
8550;SDS011;4313;42.000;21.380;2023-03-17T06:23:05;6.77;;;5.27;;
8550;SDS011;4313;42.000;21.380;2023-03-17T06:25:33;8.03;;;5.70;;
8550;SDS011;4313;42.000;21.380;2023-03-17T06:28:00;9.30;;;7.67;;
8550;SDS011;4313;42.000;21.380;2023-03-17T06:30:28;9.03;;;6.13;;
8550;SDS011;4313;42.000;21.380;2023-03-17T06:32:56;10.63;;;6.40;;
8550;SDS011;4313;42.000;21.380;2023-03-17T06:35:42;7.87;;;5.50;;
8550;SDS011;4313;42.000;21.380;2023-03-17T06:38:10;8.10;;;6.20;;
8550;SDS011;4313;42.000;21.380;2023-03-17T06:40:37;8.90;;;5.70;;
8550;SDS011;4313;42.000;21.380;2023-03-17T06:43:23;9.50;;;5.20;;
8550;SDS011;4313;42.000;21.380;2023-03-17T06:45:50;10.27;;;6.67;;
8550;SDS011;4313;42.000;21.380;2023-03-17T06:48:19;6.50;;;5.30;;
8550;SDS011;4313;42.000;21.380;2023-03-17T06:50:47;8.00;;;5.30;;
8550;SDS011;4313;42.000;21.380;2023-03-17T06:53:15;7.47;;;5.57;;
8550;SDS011;4313;42.000;21.380;2023-03-17T06:55:42;7.90;;;6.43;;
8550;SDS011;4313;42.000;21.380;2023-03-17T06:58:09;5.60;;;4.50;;
8550;SDS011;4313;42.000;21.380;2023-03-17T07:00:37;5.67;;;4.70;;
8550;SDS011;4313;42.000;21.380;2023-03-17T07:03:04;7.60;;;5.20;;
8550;SDS011;4313;42.000;21.380;2023-03-17T07:05:33;6.40;;;4.90;;
8550;SDS011;4313;42.000;21.380;2023-03-17T07:08:00;7.33;;;5.03;;
8550;SDS011;4313;42.000;21.380;2023-03-17T07:10:28;8.30;;;4.73;;
8550;SDS011;4313;42.000;21.380;2023-03-17T07:12:55;8.97;;;5.73;;
8550;SDS011;4313;42.000;21.380;2023-03-17T07:15:23;10.80;;;6.17;;
8550;SDS011;4313;42.000;21.380;2023-03-17T07:17:50;7.83;;;5.30;;
8550;SDS011;4313;42.000;21.380;2023-03-17T07:20:18;6.97;;;5.33;;
8550;SDS011;4313;42.000;21.380;2023-03-17T07:22:47;9.17;;;5.50;;
8550;SDS011;4313;42.000;21.380;2023-03-17T07:25:14;8.67;;;5.47;;
8550;SDS011;4313;42.000;21.380;2023-03-17T07:27:41;10.13;;;5.10;;
8550;SDS011;4313;42.000;21.380;2023-03-17T07:30:09;6.63;;;5.10;;
8550;SDS011;4313;42.000;21.380;2023-03-17T07:32:39;5.60;;;4.97;;
8550;SDS011;4313;42.000;21.380;2023-03-17T07:35:06;6.17;;;4.60;;
8550;SDS011;4313;42.000;21.380;2023-03-17T07:37:33;6.93;;;4.23;;
8550;SDS011;4313;42.000;21.380;2023-03-17T07:40:03;5.10;;;4.33;;
8550;SDS011;4313;42.000;21.380;2023-03-17T07:42:33;5.43;;;4.47;;
8550;SDS011;4313;42.000;21.380;2023-03-17T07:45:00;6.00;;;4.17;;
8550;SDS011;4313;42.000;21.380;2023-03-17T07:47:28;5.38;;;4.47;;
8550;SDS011;4313;42.000;21.380;2023-03-17T07:49:56;6.70;;;4.03;;
8550;SDS011;4313;42.000;21.380;2023-03-17T07:52:23;4.47;;;3.78;;
8550;SDS011;4313;42.000;21.380;2023-03-17T07:54:50;5.55;;;3.65;;
8550;SDS011;4313;42.000;21.380;2023-03-17T07:57:18;5.28;;;3.70;;
8550;SDS011;4313;42.000;21.380;2023-03-17T08:02:38;4.85;;;3.67;;
8550;SDS011;4313;42.000;21.380;2023-03-17T08:05:05;5.13;;;4.13;;
8550;SDS011;4313;42.000;21.380;2023-03-17T08:07:51;5.97;;;4.70;;
8550;SDS011;4313;42.000;21.380;2023-03-17T08:10:19;7.22;;;4.53;;
8550;SDS011;4313;42.000;21.380;2023-03-17T08:12:48;3.72;;;3.35;;
8550;SDS011;4313;42.000;21.380;2023-03-17T08:15:36;5.85;;;4.10;;
8550;SDS011;4313;42.000;21.380;2023-03-17T08:18:03;5.63;;;4.25;;
8550;SDS011;4313;42.000;21.380;2023-03-17T08:20:30;5.65;;;4.25;;
8550;SDS011;4313;42.000;21.380;2023-03-17T08:22:57;5.10;;;4.18;;
8550;SDS011;4313;42.000;21.380;2023-03-17T08:25:44;5.03;;;4.40;;
8550;SDS011;4313;42.000;21.380;2023-03-17T08:28:13;6.15;;;4.30;;
8550;SDS011;4313;42.000;21.380;2023-03-17T08:30:40;7.03;;;4.80;;
8550;SDS011;4313;42.000;21.380;2023-03-17T08:33:09;6.22;;;4.10;;
8550;SDS011;4313;42.000;21.380;2023-03-17T08:35:36;4.28;;;3.88;;
8550;SDS011;4313;42.000;21.380;2023-03-17T08:38:06;5.88;;;4.82;;
8550;SDS011;4313;42.000;21.380;2023-03-17T08:40:52;5.45;;;4.18;;
8550;SDS011;4313;42.000;21.380;2023-03-17T08:43:21;3.85;;;3.53;;
8550;SDS011;4313;42.000;21.380;2023-03-17T08:45:48;5.05;;;3.67;;
8550;SDS011;4313;42.000;21.380;2023-03-17T08:48:15;4.43;;;3.20;;
8550;SDS011;4313;42.000;21.380;2023-03-17T08:50:42;4.15;;;3.65;;
8550;SDS011;4313;42.000;21.380;2023-03-17T08:53:29;5.18;;;3.63;;
8550;SDS011;4313;42.000;21.380;2023-03-17T08:55:57;4.70;;;3.75;;
8550;SDS011;4313;42.000;21.380;2023-03-17T08:58:25;4.40;;;3.97;;
8550;SDS011;4313;42.000;21.380;2023-03-17T09:00:53;4.30;;;3.88;;
8550;SDS011;4313;42.000;21.380;2023-03-17T09:03:39;4.25;;;3.85;;
8550;SDS011;4313;42.000;21.380;2023-03-17T09:06:07;5.82;;;3.75;;
8550;SDS011;4313;42.000;21.380;2023-03-17T09:08:36;3.95;;;3.55;;
8550;SDS011;4313;42.000;21.380;2023-03-17T09:11:04;7.28;;;4.70;;
8550;SDS011;4313;42.000;21.380;2023-03-17T09:13:33;5.45;;;3.83;;
8550;SDS011;4313;42.000;21.380;2023-03-17T09:16:02;7.25;;;4.53;;
8550;SDS011;4313;42.000;21.380;2023-03-17T09:18:29;5.18;;;3.83;;
8550;SDS011;4313;42.000;21.380;2023-03-17T09:20:57;4.35;;;3.95;;
8550;SDS011;4313;42.000;21.380;2023-03-17T09:23:24;4.13;;;3.60;;
8550;SDS011;4313;42.000;21.380;2023-03-17T09:25:51;6.47;;;3.92;;
8550;SDS011;4313;42.000;21.380;2023-03-17T09:28:18;5.85;;;3.60;;
8550;SDS011;4313;42.000;21.380;2023-03-17T09:30:47;5.53;;;3.97;;
8550;SDS011;4313;42.000;21.380;2023-03-17T09:33:14;5.60;;;4.00;;
8550;SDS011;4313;42.000;21.380;2023-03-17T09:35:42;6.78;;;3.75;;
8550;SDS011;4313;42.000;21.380;2023-03-17T09:38:29;3.88;;;3.58;;
8550;SDS011;4313;42.000;21.380;2023-03-17T09:40:59;4.00;;;3.60;;
8550;SDS011;4313;42.000;21.380;2023-03-17T09:43:34;5.53;;;3.70;;
8550;SDS011;4313;42.000;21.380;2023-03-17T09:46:14;4.05;;;3.40;;
8550;SDS011;4313;42.000;21.380;2023-03-17T09:48:52;4.53;;;3.40;;
8550;SDS011;4313;42.000;21.380;2023-03-17T09:51:23;4.72;;;3.30;;
8550;SDS011;4313;42.000;21.380;2023-03-17T09:53:53;4.20;;;3.63;;
8550;SDS011;4313;42.000;21.380;2023-03-17T09:56:24;4.88;;;3.90;;
8550;SDS011;4313;42.000;21.380;2023-03-17T09:58:53;4.32;;;3.90;;
8550;SDS011;4313;42.000;21.380;2023-03-17T10:01:25;4.45;;;3.78;;
8550;SDS011;4313;42.000;21.380;2023-03-17T10:03:53;4.82;;;4.00;;
8550;SDS011;4313;42.000;21.380;2023-03-17T10:09:11;8.05;;;5.00;;
8550;SDS011;4313;42.000;21.380;2023-03-17T10:11:43;4.28;;;3.80;;
8550;SDS011;4313;42.000;21.380;2023-03-17T10:14:17;3.22;;;2.92;;
8550;SDS011;4313;42.000;21.380;2023-03-17T10:17:04;4.18;;;3.10;;
8550;SDS011;4313;42.000;21.380;2023-03-17T10:19:41;4.25;;;3.78;;
8550;SDS011;4313;42.000;21.380;2023-03-17T10:22:13;6.00;;;4.10;;
8550;SDS011;4313;42.000;21.380;2023-03-17T10:24:42;3.97;;;3.53;;
8550;SDS011;4313;42.000;21.380;2023-03-17T10:27:13;4.10;;;3.70;;
8550;SDS011;4313;42.000;21.380;2023-03-17T10:29:41;4.90;;;3.88;;
8550;SDS011;4313;42.000;21.380;2023-03-17T10:32:09;6.95;;;4.88;;
8550;SDS011;4313;42.000;21.380;2023-03-17T10:34:38;4.38;;;3.97;;
8550;SDS011;4313;42.000;21.380;2023-03-17T10:37:06;4.65;;;4.00;;
8550;SDS011;4313;42.000;21.380;2023-03-17T10:39:40;4.85;;;4.00;;
8550;SDS011;4313;42.000;21.380;2023-03-17T10:42:10;5.05;;;3.90;;
8550;SDS011;4313;42.000;21.380;2023-03-17T10:44:42;4.40;;;3.60;;
8550;SDS011;4313;42.000;21.380;2023-03-17T10:47:31;3.55;;;3.25;;
8550;SDS011;4313;42.000;21.380;2023-03-17T10:50:15;5.78;;;4.07;;
8550;SDS011;4313;42.000;21.380;2023-03-17T10:52:51;3.35;;;2.90;;
8550;SDS011;4313;42.000;21.380;2023-03-17T10:55:22;3.40;;;2.78;;
8550;SDS011;4313;42.000;21.380;2023-03-17T10:57:55;3.85;;;3.30;;
8550;SDS011;4313;42.000;21.380;2023-03-17T11:00:27;5.25;;;3.55;;
8550;SDS011;4313;42.000;21.380;2023-03-17T11:03:01;4.32;;;2.83;;
8550;SDS011;4313;42.000;21.380;2023-03-17T11:05:29;2.65;;;2.42;;
8550;SDS011;4313;42.000;21.380;2023-03-17T11:07:59;3.10;;;2.80;;
8550;SDS011;4313;42.000;21.380;2023-03-17T11:10:35;3.33;;;3.03;;
8550;SDS011;4313;42.000;21.380;2023-03-17T11:13:03;3.95;;;2.95;;
8550;SDS011;4313;42.000;21.380;2023-03-17T11:15:38;2.85;;;2.63;;
8550;SDS011;4313;42.000;21.380;2023-03-17T11:18:12;4.38;;;3.40;;
8550;SDS011;4313;42.000;21.380;2023-03-17T11:20:46;4.45;;;3.00;;
8550;SDS011;4313;42.000;21.380;2023-03-17T11:23:18;3.50;;;2.92;;
8550;SDS011;4313;42.000;21.380;2023-03-17T11:25:53;5.00;;;3.53;;
8550;SDS011;4313;42.000;21.380;2023-03-17T11:28:25;5.07;;;3.50;;
8550;SDS011;4313;42.000;21.380;2023-03-17T11:30:57;4.05;;;3.15;;
8550;SDS011;4313;42.000;21.380;2023-03-17T11:33:34;3.90;;;2.78;;
8550;SDS011;4313;42.000;21.380;2023-03-17T11:36:04;4.10;;;3.20;;
8550;SDS011;4313;42.000;21.380;2023-03-17T11:38:36;3.38;;;3.00;;
8550;SDS011;4313;42.000;21.380;2023-03-17T11:41:13;3.45;;;2.88;;
8550;SDS011;4313;42.000;21.380;2023-03-17T11:43:51;4.35;;;3.55;;
8550;SDS011;4313;42.000;21.380;2023-03-17T11:46:27;3.75;;;3.42;;
8550;SDS011;4313;42.000;21.380;2023-03-17T11:48:57;3.92;;;2.90;;
8550;SDS011;4313;42.000;21.380;2023-03-17T11:51:29;4.20;;;3.38;;
8550;SDS011;4313;42.000;21.380;2023-03-17T11:54:06;3.50;;;3.20;;
8550;SDS011;4313;42.000;21.380;2023-03-17T11:56:38;3.78;;;3.47;;
8550;SDS011;4313;42.000;21.380;2023-03-17T11:59:10;3.03;;;2.72;;
8550;SDS011;4313;42.000;21.380;2023-03-17T12:01:44;3.45;;;3.15;;
8550;SDS011;4313;42.000;21.380;2023-03-17T12:04:21;3.80;;;3.22;;
8550;SDS011;4313;42.000;21.380;2023-03-17T12:06:56;3.95;;;3.55;;
8550;SDS011;4313;42.000;21.380;2023-03-17T12:09:26;4.80;;;3.53;;
8550;SDS011;4313;42.000;21.380;2023-03-17T12:11:56;5.40;;;4.40;;
8550;SDS011;4313;42.000;21.380;2023-03-17T12:14:25;5.32;;;4.20;;
8550;SDS011;4313;42.000;21.380;2023-03-17T12:16:56;4.93;;;3.78;;
8550;SDS011;4313;42.000;21.380;2023-03-17T12:19:32;3.55;;;3.25;;
8550;SDS011;4313;42.000;21.380;2023-03-17T12:22:04;3.80;;;3.40;;
8550;SDS011;4313;42.000;21.380;2023-03-17T12:24:34;3.30;;;3.00;;
8550;SDS011;4313;42.000;21.380;2023-03-17T12:27:06;4.07;;;3.70;;
8550;SDS011;4313;42.000;21.380;2023-03-17T12:29:38;4.85;;;3.97;;
8550;SDS011;4313;42.000;21.380;2023-03-17T12:32:12;4.32;;;3.45;;
8550;SDS011;4313;42.000;21.380;2023-03-17T12:34:46;3.85;;;3.33;;
8550;SDS011;4313;42.000;21.380;2023-03-17T12:37:16;4.30;;;3.70;;
8550;SDS011;4313;42.000;21.380;2023-03-17T12:39:45;4.07;;;3.40;;
8550;SDS011;4313;42.000;21.380;2023-03-17T12:42:18;3.85;;;3.55;;
8550;SDS011;4313;42.000;21.380;2023-03-17T12:44:59;3.60;;;3.22;;
8550;SDS011;4313;42.000;21.380;2023-03-17T12:47:44;4.18;;;3.30;;
8550;SDS011;4313;42.000;21.380;2023-03-17T12:53:14;4.90;;;3.85;;
8550;SDS011;4313;42.000;21.380;2023-03-17T12:55:51;5.97;;;4.88;;
8550;SDS011;4313;42.000;21.380;2023-03-17T12:58:21;3.78;;;3.45;;
8550;SDS011;4313;42.000;21.380;2023-03-17T13:01:17;3.47;;;3.17;;
8550;SDS011;4313;42.000;21.380;2023-03-17T13:03:56;4.90;;;3.83;;
8550;SDS011;4313;42.000;21.380;2023-03-17T13:06:30;6.32;;;5.38;;
8550;SDS011;4313;42.000;21.380;2023-03-17T13:11:54;6.35;;;3.90;;
8550;SDS011;4313;42.000;21.380;2023-03-17T13:14:24;5.47;;;4.15;;
8550;SDS011;4313;42.000;21.380;2023-03-17T13:17:01;4.32;;;3.60;;
8550;SDS011;4313;42.000;21.380;2023-03-17T13:19:30;3.95;;;3.42;;
8550;SDS011;4313;42.000;21.380;2023-03-17T13:24:58;4.45;;;3.70;;
8550;SDS011;4313;42.000;21.380;2023-03-17T13:27:45;3.45;;;3.15;;
8550;SDS011;4313;42.000;21.380;2023-03-17T13:30:44;3.60;;;3.20;;
8550;SDS011;4313;42.000;21.380;2023-03-17T13:33:22;4.00;;;3.60;;
8550;SDS011;4313;42.000;21.380;2023-03-17T13:35:57;3.58;;;3.28;;
8550;SDS011;4313;42.000;21.380;2023-03-17T13:38:50;4.28;;;3.88;;
8550;SDS011;4313;42.000;21.380;2023-03-17T13:41:41;4.38;;;3.97;;
8550;SDS011;4313;42.000;21.380;2023-03-17T13:44:38;4.32;;;3.92;;
8550;SDS011;4313;42.000;21.380;2023-03-17T13:47:31;4.30;;;3.70;;
8550;SDS011;4313;42.000;21.380;2023-03-17T13:50:00;8.15;;;4.90;;
8550;SDS011;4313;42.000;21.380;2023-03-17T13:52:30;4.32;;;3.92;;
8550;SDS011;4313;42.000;21.380;2023-03-17T13:55:01;4.53;;;3.80;;
8550;SDS011;4313;42.000;21.380;2023-03-17T13:57:34;4.53;;;3.97;;
8550;SDS011;4313;42.000;21.380;2023-03-17T14:00:15;3.90;;;3.50;;
8550;SDS011;4313;42.000;21.380;2023-03-17T14:02:48;4.38;;;3.60;;
8550;SDS011;4313;42.000;21.380;2023-03-17T14:05:29;4.88;;;3.72;;
8550;SDS011;4313;42.000;21.380;2023-03-17T14:07:59;4.15;;;3.53;;
8550;SDS011;4313;42.000;21.380;2023-03-17T14:10:30;4.70;;;3.72;;
8550;SDS011;4313;42.000;21.380;2023-03-17T14:13:17;5.03;;;3.97;;
8550;SDS011;4313;42.000;21.380;2023-03-17T14:16:10;7.28;;;4.05;;
8550;SDS011;4313;42.000;21.380;2023-03-17T14:18:41;4.57;;;3.63;;
8550;SDS011;4313;42.000;21.380;2023-03-17T14:21:18;5.47;;;4.50;;
8550;SDS011;4313;42.000;21.380;2023-03-17T14:23:51;5.90;;;4.35;;
8550;SDS011;4313;42.000;21.380;2023-03-17T14:26:22;4.43;;;3.70;;
8550;SDS011;4313;42.000;21.380;2023-03-17T14:28:50;3.92;;;3.53;;
8550;SDS011;4313;42.000;21.380;2023-03-17T14:31:21;4.90;;;4.20;;
8550;SDS011;4313;42.000;21.380;2023-03-17T14:34:10;5.97;;;4.45;;
8550;SDS011;4313;42.000;21.380;2023-03-17T14:36:41;8.90;;;7.32;;
8550;SDS011;4313;42.000;21.380;2023-03-17T14:39:19;7.90;;;6.45;;
8550;SDS011;4313;42.000;21.380;2023-03-17T14:41:57;23.73;;;17.25;;
8550;SDS011;4313;42.000;21.380;2023-03-17T14:44:43;11.68;;;8.95;;
8550;SDS011;4313;42.000;21.380;2023-03-17T14:47:30;8.60;;;7.38;;
8550;SDS011;4313;42.000;21.380;2023-03-17T14:50:01;9.15;;;7.82;;
8550;SDS011;4313;42.000;21.380;2023-03-17T14:52:31;6.80;;;6.10;;
8550;SDS011;4313;42.000;21.380;2023-03-17T14:55:00;6.13;;;4.10;;
8550;SDS011;4313;42.000;21.380;2023-03-17T14:57:31;5.85;;;4.45;;
8550;SDS011;4313;42.000;21.380;2023-03-17T14:59:59;7.85;;;5.50;;
8550;SDS011;4313;42.000;21.380;2023-03-17T15:02:31;4.50;;;4.10;;
8550;SDS011;4313;42.000;21.380;2023-03-17T15:05:01;8.95;;;4.93;;
8550;SDS011;4313;42.000;21.380;2023-03-17T15:07:35;7.80;;;4.70;;
8550;SDS011;4313;42.000;21.380;2023-03-17T15:10:04;7.05;;;4.63;;
8550;SDS011;4313;42.000;21.380;2023-03-17T15:12:33;5.55;;;4.60;;
8550;SDS011;4313;42.000;21.380;2023-03-17T15:15:02;6.53;;;4.07;;
8550;SDS011;4313;42.000;21.380;2023-03-17T15:17:31;6.78;;;4.88;;
8550;SDS011;4313;42.000;21.380;2023-03-17T15:20:00;4.93;;;4.38;;
8550;SDS011;4313;42.000;21.380;2023-03-17T15:22:48;6.22;;;4.03;;
8550;SDS011;4313;42.000;21.380;2023-03-17T15:25:23;8.35;;;4.10;;
8550;SDS011;4313;42.000;21.380;2023-03-17T15:27:54;6.18;;;5.20;;
8550;SDS011;4313;42.000;21.380;2023-03-17T15:30:22;5.65;;;4.80;;
8550;SDS011;4313;42.000;21.380;2023-03-17T15:32:50;6.57;;;5.00;;
8550;SDS011;4313;42.000;21.380;2023-03-17T15:35:36;6.38;;;4.22;;
8550;SDS011;4313;42.000;21.380;2023-03-17T15:38:04;5.90;;;4.32;;
8550;SDS011;4313;42.000;21.380;2023-03-17T15:40:32;5.78;;;3.97;;
8550;SDS011;4313;42.000;21.380;2023-03-17T15:43:00;6.50;;;4.30;;